sensor_id;sensor_type;location;lat;lon;timestamp;P1;durP1;ratioP1;P2;durP2;ratioP2
41456;SDS011;27197;51.752;5.220;2022-12-29T00:00:39;2.97;;;1.33;;
41456;SDS011;27197;51.752;5.220;2022-12-29T00:03:12;2.53;;;1.50;;
41456;SDS011;27197;51.752;5.220;2022-12-29T00:05:41;2.73;;;1.60;;
41456;SDS011;27197;51.752;5.220;2022-12-29T00:08:10;2.43;;;1.60;;
41456;SDS011;27197;51.752;5.220;2022-12-29T00:10:39;3.47;;;1.93;;
41456;SDS011;27197;51.752;5.220;2022-12-29T00:13:08;3.03;;;1.77;;
41456;SDS011;27197;51.752;5.220;2022-12-29T00:15:57;4.13;;;1.87;;
41456;SDS011;27197;51.752;5.220;2022-12-29T00:18:27;3.20;;;1.70;;
41456;SDS011;27197;51.752;5.220;2022-12-29T00:20:59;2.83;;;1.70;;
41456;SDS011;27197;51.752;5.220;2022-12-29T00:23:43;2.33;;;1.35;;
41456;SDS011;27197;51.752;5.220;2022-12-29T00:26:32;3.60;;;1.70;;
41456;SDS011;27197;51.752;5.220;2022-12-29T00:29:18;2.42;;;1.35;;
41456;SDS011;27197;51.752;5.220;2022-12-29T00:32:07;4.53;;;1.97;;
41456;SDS011;27197;51.752;5.220;2022-12-29T00:34:51;2.22;;;1.45;;
41456;SDS011;27197;51.752;5.220;2022-12-29T00:37:43;7.10;;;1.83;;
41456;SDS011;27197;51.752;5.220;2022-12-29T00:40:28;2.90;;;1.20;;
41456;SDS011;27197;51.752;5.220;2022-12-29T00:43:18;3.80;;;1.50;;
41456;SDS011;27197;51.752;5.220;2022-12-29T00:48:33;1.30;;;0.90;;
41456;SDS011;27197;51.752;5.220;2022-12-29T00:51:22;2.52;;;1.57;;
41456;SDS011;27197;51.752;5.220;2022-12-29T00:53:50;3.43;;;1.60;;
41456;SDS011;27197;51.752;5.220;2022-12-29T00:56:22;2.55;;;1.40;;
41456;SDS011;27197;51.752;5.220;2022-12-29T00:58:51;4.10;;;1.70;;
41456;SDS011;27197;51.752;5.220;2022-12-29T01:01:24;3.20;;;1.40;;
41456;SDS011;27197;51.752;5.220;2022-12-29T01:03:53;2.23;;;1.20;;
41456;SDS011;27197;51.752;5.220;2022-12-29T01:06:26;2.47;;;0.90;;
41456;SDS011;27197;51.752;5.220;2022-12-29T01:08:55;1.70;;;1.00;;
41456;SDS011;27197;51.752;5.220;2022-12-29T01:11:45;1.00;;;0.87;;
41456;SDS011;27197;51.752;5.220;2022-12-29T01:14:13;3.80;;;1.13;;
41456;SDS011;27197;51.752;5.220;2022-12-29T01:19:12;0.70;;;0.67;;
41456;SDS011;27197;51.752;5.220;2022-12-29T01:21:46;1.97;;;1.10;;
41456;SDS011;27197;51.752;5.220;2022-12-29T01:24:15;2.07;;;0.97;;
41456;SDS011;27197;51.752;5.220;2022-12-29T01:26:47;1.93;;;1.00;;
41456;SDS011;27197;51.752;5.220;2022-12-29T01:29:15;2.73;;;1.00;;
41456;SDS011;27197;51.752;5.220;2022-12-29T01:31:47;2.40;;;0.80;;
41456;SDS011;27197;51.752;5.220;2022-12-29T01:34:16;2.10;;;1.20;;
41456;SDS011;27197;51.752;5.220;2022-12-29T01:36:47;2.47;;;1.10;;
41456;SDS011;27197;51.752;5.220;2022-12-29T01:39:17;1.77;;;0.93;;
41456;SDS011;27197;51.752;5.220;2022-12-29T01:41:49;1.90;;;1.30;;
41456;SDS011;27197;51.752;5.220;2022-12-29T01:47:07;3.70;;;1.60;;
41456;SDS011;27197;51.752;5.220;2022-12-29T01:49:38;2.87;;;1.63;;
41456;SDS011;27197;51.752;5.220;2022-12-29T01:52:10;2.70;;;1.00;;
41456;SDS011;27197;51.752;5.220;2022-12-29T01:54:44;2.03;;;1.10;;
41456;SDS011;27197;51.752;5.220;2022-12-29T01:57:12;2.23;;;1.10;;
41456;SDS011;27197;51.752;5.220;2022-12-29T01:59:46;1.63;;;0.90;;
41456;SDS011;27197;51.752;5.220;2022-12-29T02:02:15;2.80;;;1.10;;
41456;SDS011;27197;51.752;5.220;2022-12-29T02:07:19;3.00;;;0.90;;
41456;SDS011;27197;51.752;5.220;2022-12-29T02:09:50;3.20;;;0.93;;
41456;SDS011;27197;51.752;5.220;2022-12-29T02:12:22;1.60;;;0.77;;
41456;SDS011;27197;51.752;5.220;2022-12-29T02:14:53;2.50;;;0.90;;
41456;SDS011;27197;51.752;5.220;2022-12-29T02:17:31;3.13;;;0.80;;
41456;SDS011;27197;51.752;5.220;2022-12-29T02:22:37;3.40;;;0.85;;
41456;SDS011;27197;51.752;5.220;2022-12-29T02:28:06;2.10;;;0.97;;
41456;SDS011;27197;51.752;5.220;2022-12-29T02:36:03;5.10;;;0.90;;
41456;SDS011;27197;51.752;5.220;2022-12-29T02:41:09;2.67;;;0.73;;
41456;SDS011;27197;51.752;5.220;2022-12-29T02:46:14;1.50;;;0.80;;
41456;SDS011;27197;51.752;5.220;2022-12-29T02:48:43;2.53;;;0.60;;
41456;SDS011;27197;51.752;5.220;2022-12-29T02:51:25;2.33;;;1.03;;
41456;SDS011;27197;51.752;5.220;2022-12-29T02:53:53;1.23;;;0.70;;
41456;SDS011;27197;51.752;5.220;2022-12-29T02:56:42;3.60;;;0.90;;
41456;SDS011;27197;51.752;5.220;2022-12-29T02:59:12;2.80;;;1.05;;
41456;SDS011;27197;51.752;5.220;2022-12-29T03:02:03;2.87;;;1.00;;
41456;SDS011;27197;51.752;5.220;2022-12-29T03:12:39;2.27;;;0.80;;
41456;SDS011;27197;51.752;5.220;2022-12-29T03:15:28;4.17;;;0.90;;
41456;SDS011;27197;51.752;5.220;2022-12-29T03:18:19;5.70;;;0.80;;
41456;SDS011;27197;51.752;5.220;2022-12-29T03:20:49;2.13;;;0.90;;
41456;SDS011;27197;51.752;5.220;2022-12-29T03:23:18;2.67;;;1.00;;
41456;SDS011;27197;51.752;5.220;2022-12-29T03:25:48;3.07;;;1.10;;
41456;SDS011;27197;51.752;5.220;2022-12-29T03:28:29;3.37;;;1.00;;
41456;SDS011;27197;51.752;5.220;2022-12-29T03:30:59;2.57;;;0.70;;
41456;SDS011;27197;51.752;5.220;2022-12-29T03:33:32;2.70;;;0.70;;
41456;SDS011;27197;51.752;5.220;2022-12-29T03:36:01;2.67;;;0.70;;
41456;SDS011;27197;51.752;5.220;2022-12-29T03:41:06;1.60;;;0.60;;
41456;SDS011;27197;51.752;5.220;2022-12-29T03:43:36;4.70;;;1.03;;
41456;SDS011;27197;51.752;5.220;2022-12-29T03:46:10;1.90;;;0.73;;
41456;SDS011;27197;51.752;5.220;2022-12-29T03:48:39;2.50;;;0.80;;
41456;SDS011;27197;51.752;5.220;2022-12-29T03:51:14;3.47;;;0.90;;
41456;SDS011;27197;51.752;5.220;2022-12-29T03:53:43;2.60;;;0.80;;
41456;SDS011;27197;51.752;5.220;2022-12-29T03:56:15;2.70;;;0.90;;
41456;SDS011;27197;51.752;5.220;2022-12-29T03:58:49;3.47;;;1.10;;
41456;SDS011;27197;51.752;5.220;2022-12-29T04:01:22;2.43;;;0.80;;
41456;SDS011;27197;51.752;5.220;2022-12-29T04:03:55;3.97;;;0.90;;
41456;SDS011;27197;51.752;5.220;2022-12-29T04:06:24;4.03;;;1.13;;
41456;SDS011;27197;51.752;5.220;2022-12-29T04:08:56;1.67;;;0.97;;
41456;SDS011;27197;51.752;5.220;2022-12-29T04:11:31;2.13;;;0.80;;
41456;SDS011;27197;51.752;5.220;2022-12-29T04:14:00;1.82;;;0.70;;
41456;SDS011;27197;51.752;5.220;2022-12-29T04:16:35;2.30;;;0.70;;
41456;SDS011;27197;51.752;5.220;2022-12-29T04:19:05;3.63;;;1.00;;
41456;SDS011;27197;51.752;5.220;2022-12-29T04:21:33;3.93;;;0.80;;
41456;SDS011;27197;51.752;5.220;2022-12-29T04:24:03;2.87;;;1.07;;
41456;SDS011;27197;51.752;5.220;2022-12-29T04:26:34;4.20;;;0.93;;
41456;SDS011;27197;51.752;5.220;2022-12-29T04:29:09;1.60;;;0.98;;
41456;SDS011;27197;51.752;5.220;2022-12-29T04:31:39;1.67;;;0.70;;
41456;SDS011;27197;51.752;5.220;2022-12-29T04:34:10;1.97;;;0.90;;
41456;SDS011;27197;51.752;5.220;2022-12-29T04:36:42;4.47;;;0.60;;
41456;SDS011;27197;51.752;5.220;2022-12-29T04:41:42;1.10;;;0.60;;
41456;SDS011;27197;51.752;5.220;2022-12-29T04:44:09;2.37;;;1.00;;
41456;SDS011;27197;51.752;5.220;2022-12-29T04:49:10;4.47;;;1.00;;
41456;SDS011;27197;51.752;5.220;2022-12-29T04:51:40;1.83;;;0.73;;
41456;SDS011;27197;51.752;5.220;2022-12-29T04:54:15;1.53;;;0.70;;
41456;SDS011;27197;51.752;5.220;2022-12-29T04:56:45;4.10;;;0.90;;
41456;SDS011;27197;51.752;5.220;2022-12-29T04:59:16;3.37;;;1.00;;
41456;SDS011;27197;51.752;5.220;2022-12-29T05:01:51;2.97;;;1.00;;
41456;SDS011;27197;51.752;5.220;2022-12-29T05:04:23;2.43;;;1.03;;
41456;SDS011;27197;51.752;5.220;2022-12-29T05:06:58;2.70;;;1.00;;
41456;SDS011;27197;51.752;5.220;2022-12-29T05:09:28;2.40;;;0.70;;
41456;SDS011;27197;51.752;5.220;2022-12-29T05:11:59;3.37;;;1.40;;
41456;SDS011;27197;51.752;5.220;2022-12-29T05:14:34;2.07;;;1.17;;
41456;SDS011;27197;51.752;5.220;2022-12-29T05:17:01;2.07;;;1.20;;
41456;SDS011;27197;51.752;5.220;2022-12-29T05:19:35;2.33;;;0.80;;
41456;SDS011;27197;51.752;5.220;2022-12-29T05:22:06;4.33;;;1.20;;
41456;SDS011;27197;51.752;5.220;2022-12-29T05:24:33;4.83;;;1.53;;
41456;SDS011;27197;51.752;5.220;2022-12-29T05:27:05;4.20;;;1.30;;
41456;SDS011;27197;51.752;5.220;2022-12-29T05:29:35;3.90;;;1.00;;
41456;SDS011;27197;51.752;5.220;2022-12-29T05:32:07;3.07;;;0.77;;
41456;SDS011;27197;51.752;5.220;2022-12-29T05:34:37;4.47;;;1.73;;
41456;SDS011;27197;51.752;5.220;2022-12-29T05:37:09;4.67;;;1.20;;
41456;SDS011;27197;51.752;5.220;2022-12-29T05:39:38;6.27;;;1.07;;
41456;SDS011;27197;51.752;5.220;2022-12-29T05:42:10;4.60;;;1.40;;
41456;SDS011;27197;51.752;5.220;2022-12-29T05:44:38;5.20;;;1.33;;
41456;SDS011;27197;51.752;5.220;2022-12-29T05:47:10;3.77;;;1.03;;
41456;SDS011;27197;51.752;5.220;2022-12-29T05:49:43;2.73;;;1.30;;
41456;SDS011;27197;51.752;5.220;2022-12-29T05:52:17;3.80;;;0.93;;
41456;SDS011;27197;51.752;5.220;2022-12-29T05:54:50;5.70;;;1.30;;
41456;SDS011;27197;51.752;5.220;2022-12-29T05:57:21;5.27;;;1.60;;
41456;SDS011;27197;51.752;5.220;2022-12-29T05:59:51;5.23;;;1.33;;
41456;SDS011;27197;51.752;5.220;2022-12-29T06:02:23;4.57;;;1.47;;
41456;SDS011;27197;51.752;5.220;2022-12-29T06:04:50;5.57;;;1.43;;
41456;SDS011;27197;51.752;5.220;2022-12-29T06:09:48;4.43;;;1.03;;
41456;SDS011;27197;51.752;5.220;2022-12-29T06:12:21;4.80;;;1.70;;
41456;SDS011;27197;51.752;5.220;2022-12-29T06:14:50;4.87;;;1.27;;
41456;SDS011;27197;51.752;5.220;2022-12-29T06:17:22;6.33;;;1.23;;
41456;SDS011;27197;51.752;5.220;2022-12-29T06:19:54;3.90;;;1.03;;
41456;SDS011;27197;51.752;5.220;2022-12-29T06:22:24;3.17;;;1.13;;
41456;SDS011;27197;51.752;5.220;2022-12-29T06:24:56;6.90;;;1.27;;
41456;SDS011;27197;51.752;5.220;2022-12-29T06:27:26;3.73;;;0.93;;
41456;SDS011;27197;51.752;5.220;2022-12-29T06:29:58;3.73;;;0.90;;
41456;SDS011;27197;51.752;5.220;2022-12-29T06:32:28;3.93;;;1.10;;
41456;SDS011;27197;51.752;5.220;2022-12-29T06:34:57;4.90;;;1.10;;
41456;SDS011;27197;51.752;5.220;2022-12-29T06:37:28;5.87;;;0.95;;
41456;SDS011;27197;51.752;5.220;2022-12-29T06:39:58;5.57;;;1.50;;
41456;SDS011;27197;51.752;5.220;2022-12-29T06:42:30;2.77;;;1.10;;
41456;SDS011;27197;51.752;5.220;2022-12-29T06:45:00;6.07;;;1.10;;
41456;SDS011;27197;51.752;5.220;2022-12-29T06:47:31;3.22;;;0.98;;
41456;SDS011;27197;51.752;5.220;2022-12-29T06:50:01;5.33;;;1.17;;
41456;SDS011;27197;51.752;5.220;2022-12-29T06:54:59;5.77;;;1.10;;
41456;SDS011;27197;51.752;5.220;2022-12-29T06:57:31;5.80;;;1.30;;
41456;SDS011;27197;51.752;5.220;2022-12-29T07:00:02;3.87;;;1.00;;
41456;SDS011;27197;51.752;5.220;2022-12-29T07:02:32;3.20;;;0.93;;
41456;SDS011;27197;51.752;5.220;2022-12-29T07:05:06;4.60;;;1.40;;
41456;SDS011;27197;51.752;5.220;2022-12-29T07:07:34;4.17;;;1.23;;
41456;SDS011;27197;51.752;5.220;2022-12-29T07:10:04;4.30;;;1.10;;
41456;SDS011;27197;51.752;5.220;2022-12-29T07:12:33;6.93;;;1.40;;
41456;SDS011;27197;51.752;5.220;2022-12-29T07:15:02;4.13;;;0.90;;
41456;SDS011;27197;51.752;5.220;2022-12-29T07:17:34;3.97;;;1.20;;
41456;SDS011;27197;51.752;5.220;2022-12-29T07:20:04;6.30;;;1.37;;
41456;SDS011;27197;51.752;5.220;2022-12-29T07:22:37;4.63;;;1.10;;
41456;SDS011;27197;51.752;5.220;2022-12-29T07:25:06;6.40;;;0.93;;
41456;SDS011;27197;51.752;5.220;2022-12-29T07:27:38;3.57;;;1.50;;
41456;SDS011;27197;51.752;5.220;2022-12-29T07:30:08;4.10;;;1.40;;
41456;SDS011;27197;51.752;5.220;2022-12-29T07:32:37;4.97;;;1.30;;
41456;SDS011;27197;51.752;5.220;2022-12-29T07:35:08;5.23;;;1.23;;
41456;SDS011;27197;51.752;5.220;2022-12-29T07:37:36;5.03;;;1.40;;
41456;SDS011;27197;51.752;5.220;2022-12-29T07:40:06;3.60;;;1.27;;
41456;SDS011;27197;51.752;5.220;2022-12-29T07:42:35;6.63;;;1.40;;
41456;SDS011;27197;51.752;5.220;2022-12-29T07:45:06;7.10;;;1.50;;
41456;SDS011;27197;51.752;5.220;2022-12-29T07:47:35;3.97;;;1.03;;
41456;SDS011;27197;51.752;5.220;2022-12-29T07:50:06;7.00;;;1.33;;
41456;SDS011;27197;51.752;5.220;2022-12-29T07:52:35;6.23;;;1.30;;
41456;SDS011;27197;51.752;5.220;2022-12-29T07:55:05;4.23;;;1.33;;
41456;SDS011;27197;51.752;5.220;2022-12-29T07:57:34;5.20;;;1.10;;
41456;SDS011;27197;51.752;5.220;2022-12-29T08:00:04;3.30;;;1.17;;
41456;SDS011;27197;51.752;5.220;2022-12-29T08:02:33;4.83;;;1.23;;
41456;SDS011;27197;51.752;5.220;2022-12-29T08:05:03;6.03;;;1.40;;
41456;SDS011;27197;51.752;5.220;2022-12-29T08:07:33;2.67;;;0.93;;
41456;SDS011;27197;51.752;5.220;2022-12-29T08:10:03;5.80;;;1.43;;
41456;SDS011;27197;51.752;5.220;2022-12-29T08:12:32;7.03;;;1.47;;
41456;SDS011;27197;51.752;5.220;2022-12-29T08:15:02;8.00;;;1.33;;
41456;SDS011;27197;51.752;5.220;2022-12-29T08:17:35;3.90;;;1.27;;
41456;SDS011;27197;51.752;5.220;2022-12-29T08:20:05;6.57;;;1.53;;
41456;SDS011;27197;51.752;5.220;2022-12-29T08:22:35;4.87;;;1.40;;
41456;SDS011;27197;51.752;5.220;2022-12-29T08:25:06;7.17;;;1.40;;
41456;SDS011;27197;51.752;5.220;2022-12-29T08:27:37;6.00;;;1.17;;
41456;SDS011;27197;51.752;5.220;2022-12-29T08:30:07;3.93;;;1.43;;
41456;SDS011;27197;51.752;5.220;2022-12-29T08:32:38;6.42;;;1.57;;
41456;SDS011;27197;51.752;5.220;2022-12-29T08:35:08;7.47;;;1.80;;
41456;SDS011;27197;51.752;5.220;2022-12-29T08:37:40;5.20;;;1.50;;
41456;SDS011;27197;51.752;5.220;2022-12-29T08:40:10;7.03;;;1.30;;
41456;SDS011;27197;51.752;5.220;2022-12-29T08:42:43;7.47;;;1.90;;
41456;SDS011;27197;51.752;5.220;2022-12-29T08:45:12;4.43;;;1.10;;
41456;SDS011;27197;51.752;5.220;2022-12-29T08:47:44;7.17;;;2.10;;
41456;SDS011;27197;51.752;5.220;2022-12-29T08:50:14;4.43;;;1.30;;
41456;SDS011;27197;51.752;5.220;2022-12-29T08:52:46;8.10;;;1.77;;
41456;SDS011;27197;51.752;5.220;2022-12-29T08:55:18;6.83;;;1.73;;
41456;SDS011;27197;51.752;5.220;2022-12-29T08:57:50;5.83;;;1.90;;
41456;SDS011;27197;51.752;5.220;2022-12-29T09:00:20;6.67;;;2.23;;
41456;SDS011;27197;51.752;5.220;2022-12-29T09:02:52;7.03;;;1.70;;
41456;SDS011;27197;51.752;5.220;2022-12-29T09:05:20;6.57;;;1.70;;
41456;SDS011;27197;51.752;5.220;2022-12-29T09:07:53;7.70;;;1.27;;
41456;SDS011;27197;51.752;5.220;2022-12-29T09:10:22;6.00;;;1.57;;
41456;SDS011;27197;51.752;5.220;2022-12-29T09:12:53;3.97;;;1.30;;
41456;SDS011;27197;51.752;5.220;2022-12-29T09:15:21;6.43;;;1.40;;
41456;SDS011;27197;51.752;5.220;2022-12-29T09:17:53;5.25;;;1.55;;
41456;SDS011;27197;51.752;5.220;2022-12-29T09:20:21;5.53;;;1.30;;
41456;SDS011;27197;51.752;5.220;2022-12-29T09:22:50;8.50;;;2.07;;
41456;SDS011;27197;51.752;5.220;2022-12-29T09:25:23;6.73;;;1.43;;
41456;SDS011;27197;51.752;5.220;2022-12-29T09:27:52;9.33;;;2.03;;
41456;SDS011;27197;51.752;5.220;2022-12-29T09:32:52;9.28;;;1.85;;
41456;SDS011;27197;51.752;5.220;2022-12-29T09:35:20;6.00;;;2.00;;
41456;SDS011;27197;51.752;5.220;2022-12-29T09:37:52;6.73;;;1.50;;
41456;SDS011;27197;51.752;5.220;2022-12-29T09:40:30;4.77;;;1.33;;
41456;SDS011;27197;51.752;5.220;2022-12-29T09:43:14;7.90;;;1.83;;
41456;SDS011;27197;51.752;5.220;2022-12-29T09:48:31;4.37;;;1.27;;
41456;SDS011;27197;51.752;5.220;2022-12-29T09:51:00;6.23;;;1.60;;
41456;SDS011;27197;51.752;5.220;2022-12-29T09:53:32;7.37;;;2.00;;
41456;SDS011;27197;51.752;5.220;2022-12-29T09:56:01;5.30;;;1.90;;
41456;SDS011;27197;51.752;5.220;2022-12-29T09:58:35;4.22;;;1.55;;
41456;SDS011;27197;51.752;5.220;2022-12-29T10:01:22;6.07;;;1.17;;
41456;SDS011;27197;51.752;5.220;2022-12-29T10:03:51;5.97;;;1.90;;
41456;SDS011;27197;51.752;5.220;2022-12-29T10:06:25;5.07;;;1.70;;
41456;SDS011;27197;51.752;5.220;2022-12-29T10:11:44;7.33;;;1.73;;
41456;SDS011;27197;51.752;5.220;2022-12-29T10:14:18;6.00;;;1.40;;
41456;SDS011;27197;51.752;5.220;2022-12-29T10:16:56;4.63;;;1.33;;
41456;SDS011;27197;51.752;5.220;2022-12-29T10:22:09;4.60;;;1.27;;
41456;SDS011;27197;51.752;5.220;2022-12-29T10:24:38;8.30;;;3.00;;
41456;SDS011;27197;51.752;5.220;2022-12-29T10:27:12;7.17;;;1.57;;
41456;SDS011;27197;51.752;5.220;2022-12-29T10:29:40;6.03;;;1.67;;
41456;SDS011;27197;51.752;5.220;2022-12-29T10:34:51;6.87;;;3.00;;
41456;SDS011;27197;51.752;5.220;2022-12-29T10:37:24;4.97;;;1.83;;
41456;SDS011;27197;51.752;5.220;2022-12-29T10:39:49;5.27;;;1.93;;
41456;SDS011;27197;51.752;5.220;2022-12-29T10:42:21;8.53;;;2.70;;
41456;SDS011;27197;51.752;5.220;2022-12-29T10:44:59;5.90;;;1.77;;
41456;SDS011;27197;51.752;5.220;2022-12-29T10:47:25;4.50;;;1.63;;
41456;SDS011;27197;51.752;5.220;2022-12-29T10:49:59;8.43;;;2.03;;
41456;SDS011;27197;51.752;5.220;2022-12-29T10:52:26;6.63;;;1.67;;
41456;SDS011;27197;51.752;5.220;2022-12-29T10:54:58;6.43;;;2.20;;
41456;SDS011;27197;51.752;5.220;2022-12-29T10:57:35;8.47;;;2.17;;
41456;SDS011;27197;51.752;5.220;2022-12-29T11:00:11;5.70;;;2.00;;
41456;SDS011;27197;51.752;5.220;2022-12-29T11:05:42;7.40;;;2.30;;
41456;SDS011;27197;51.752;5.220;2022-12-29T11:08:16;8.00;;;2.00;;
41456;SDS011;27197;51.752;5.220;2022-12-29T11:10:44;7.50;;;2.13;;
41456;SDS011;27197;51.752;5.220;2022-12-29T11:13:19;5.70;;;2.07;;
41456;SDS011;27197;51.752;5.220;2022-12-29T11:15:48;8.10;;;2.30;;
41456;SDS011;27197;51.752;5.220;2022-12-29T11:21:04;7.60;;;2.20;;
41456;SDS011;27197;51.752;5.220;2022-12-29T11:23:36;6.50;;;2.23;;
41456;SDS011;27197;51.752;5.220;2022-12-29T11:28:41;10.23;;;2.60;;
41456;SDS011;27197;51.752;5.220;2022-12-29T11:31:12;7.62;;;1.95;;
41456;SDS011;27197;51.752;5.220;2022-12-29T11:33:42;7.77;;;2.00;;
41456;SDS011;27197;51.752;5.220;2022-12-29T11:36:15;6.97;;;1.90;;
41456;SDS011;27197;51.752;5.220;2022-12-29T11:38:48;6.30;;;2.33;;
41456;SDS011;27197;51.752;5.220;2022-12-29T11:41:23;5.80;;;2.00;;
41456;SDS011;27197;51.752;5.220;2022-12-29T11:44:00;8.60;;;1.90;;
41456;SDS011;27197;51.752;5.220;2022-12-29T11:46:27;6.27;;;2.30;;
41456;SDS011;27197;51.752;5.220;2022-12-29T11:48:57;8.70;;;2.63;;
41456;SDS011;27197;51.752;5.220;2022-12-29T11:51:41;9.43;;;2.73;;
41456;SDS011;27197;51.752;5.220;2022-12-29T11:54:10;6.73;;;2.50;;
41456;SDS011;27197;51.752;5.220;2022-12-29T11:56:42;8.47;;;2.87;;
41456;SDS011;27197;51.752;5.220;2022-12-29T12:02:00;8.03;;;2.70;;
41456;SDS011;27197;51.752;5.220;2022-12-29T12:04:34;6.03;;;2.30;;
41456;SDS011;27197;51.752;5.220;2022-12-29T12:09:42;10.77;;;3.10;;
41456;SDS011;27197;51.752;5.220;2022-12-29T12:12:21;7.77;;;2.47;;
41456;SDS011;27197;51.752;5.220;2022-12-29T12:14:46;8.33;;;2.53;;
41456;SDS011;27197;51.752;5.220;2022-12-29T12:17:17;10.00;;;2.60;;
41456;SDS011;27197;51.752;5.220;2022-12-29T12:20:02;8.43;;;2.63;;
41456;SDS011;27197;51.752;5.220;2022-12-29T12:22:38;7.07;;;2.20;;
41456;SDS011;27197;51.752;5.220;2022-12-29T12:25:18;9.50;;;2.67;;
41456;SDS011;27197;51.752;5.220;2022-12-29T12:27:54;9.97;;;2.20;;
41456;SDS011;27197;51.752;5.220;2022-12-29T12:30:24;8.87;;;2.43;;
41456;SDS011;27197;51.752;5.220;2022-12-29T12:32:58;10.67;;;2.40;;
41456;SDS011;27197;51.752;5.220;2022-12-29T12:35:43;7.50;;;2.30;;
41456;SDS011;27197;51.752;5.220;2022-12-29T12:38:20;11.93;;;2.90;;
41456;SDS011;27197;51.752;5.220;2022-12-29T12:40:53;6.90;;;2.00;;
41456;SDS011;27197;51.752;5.220;2022-12-29T12:59:24;9.65;;;2.05;;
41456;SDS011;27197;51.752;5.220;2022-12-29T13:02:00;7.63;;;2.23;;
41456;SDS011;27197;51.752;5.220;2022-12-29T13:04:32;11.12;;;2.27;;
41456;SDS011;27197;51.752;5.220;2022-12-29T13:12:39;5.03;;;1.60;;
41456;SDS011;27197;51.752;5.220;2022-12-29T13:20:54;6.50;;;1.80;;
41456;SDS011;27197;51.752;5.220;2022-12-29T13:23:01;4.47;;;1.80;;
41456;SDS011;27197;51.752;5.220;2022-12-29T13:25:42;5.30;;;1.63;;
41456;SDS011;27197;51.752;5.220;2022-12-29T13:28:09;5.97;;;2.00;;
41456;SDS011;27197;51.752;5.220;2022-12-29T13:33:28;5.47;;;1.70;;
41456;SDS011;27197;51.752;5.220;2022-12-29T13:36:02;6.23;;;1.60;;
41456;SDS011;27197;51.752;5.220;2022-12-29T13:38:37;3.75;;;1.55;;
41456;SDS011;27197;51.752;5.220;2022-12-29T13:41:11;2.80;;;1.13;;
41456;SDS011;27197;51.752;5.220;2022-12-29T13:43:37;5.67;;;1.40;;
41456;SDS011;27197;51.752;5.220;2022-12-29T13:46:11;7.10;;;1.30;;
41456;SDS011;27197;51.752;5.220;2022-12-29T13:49:26;3.53;;;1.40;;
41456;SDS011;27197;51.752;5.220;2022-12-29T13:51:13;4.67;;;1.50;;
41456;SDS011;27197;51.752;5.220;2022-12-29T13:56:33;4.57;;;1.60;;
41456;SDS011;27197;51.752;5.220;2022-12-29T14:01:36;5.97;;;1.40;;
41456;SDS011;27197;51.752;5.220;2022-12-29T14:04:11;3.15;;;1.32;;
41456;SDS011;27197;51.752;5.220;2022-12-29T14:06:58;3.70;;;2.03;;
41456;SDS011;27197;51.752;5.220;2022-12-29T14:09:32;4.87;;;1.27;;
41456;SDS011;27197;51.752;5.220;2022-12-29T14:12:01;3.67;;;1.50;;
41456;SDS011;27197;51.752;5.220;2022-12-29T14:14:29;4.90;;;1.70;;
41456;SDS011;27197;51.752;5.220;2022-12-29T14:17:12;8.40;;;2.17;;
41456;SDS011;27197;51.752;5.220;2022-12-29T14:19:44;5.17;;;1.40;;
41456;SDS011;27197;51.752;5.220;2022-12-29T14:22:17;6.57;;;2.50;;
41456;SDS011;27197;51.752;5.220;2022-12-29T14:24:47;5.30;;;2.23;;
41456;SDS011;27197;51.752;5.220;2022-12-29T14:29:53;6.03;;;1.87;;
41456;SDS011;27197;51.752;5.220;2022-12-29T14:34:59;5.17;;;1.73;;
41456;SDS011;27197;51.752;5.220;2022-12-29T14:37:34;6.50;;;1.60;;
41456;SDS011;27197;51.752;5.220;2022-12-29T14:40:18;4.57;;;1.60;;
41456;SDS011;27197;51.752;5.220;2022-12-29T14:42:50;4.80;;;1.30;;
41456;SDS011;27197;51.752;5.220;2022-12-29T14:47:52;5.33;;;1.80;;
41456;SDS011;27197;51.752;5.220;2022-12-29T14:50:24;10.53;;;2.10;;
41456;SDS011;27197;51.752;5.220;2022-12-29T14:52:55;6.83;;;2.03;;
41456;SDS011;27197;51.752;5.220;2022-12-29T14:58:06;5.40;;;1.70;;
41456;SDS011;27197;51.752;5.220;2022-12-29T15:00:37;7.17;;;1.67;;
41456;SDS011;27197;51.752;5.220;2022-12-29T15:03:18;5.20;;;1.50;;
41456;SDS011;27197;51.752;5.220;2022-12-29T15:05:53;7.27;;;1.60;;
41456;SDS011;27197;51.752;5.220;2022-12-29T15:08:25;8.07;;;1.60;;
41456;SDS011;27197;51.752;5.220;2022-12-29T15:10:58;4.77;;;1.90;;
41456;SDS011;27197;51.752;5.220;2022-12-29T15:13:24;7.07;;;1.17;;
41456;SDS011;27197;51.752;5.220;2022-12-29T15:15:55;4.80;;;1.30;;
41456;SDS011;27197;51.752;5.220;2022-12-29T15:18:26;3.33;;;1.20;;
41456;SDS011;27197;51.752;5.220;2022-12-29T15:21:00;5.50;;;1.60;;
41456;SDS011;27197;51.752;5.220;2022-12-29T15:23:28;5.73;;;2.07;;
41456;SDS011;27197;51.752;5.220;2022-12-29T15:26:01;3.62;;;1.35;;
41456;SDS011;27197;51.752;5.220;2022-12-29T15:28:41;5.40;;;1.37;;
41456;SDS011;27197;51.752;5.220;2022-12-29T15:31:14;5.13;;;1.47;;
41456;SDS011;27197;51.752;5.220;2022-12-29T15:33:43;4.63;;;1.63;;
41456;SDS011;27197;51.752;5.220;2022-12-29T15:36:12;4.17;;;1.37;;
41456;SDS011;27197;51.752;5.220;2022-12-29T15:38:41;6.63;;;2.57;;
41456;SDS011;27197;51.752;5.220;2022-12-29T15:41:24;5.20;;;1.57;;
41456;SDS011;27197;51.752;5.220;2022-12-29T15:46:32;3.70;;;1.33;;
41456;SDS011;27197;51.752;5.220;2022-12-29T15:48:59;6.10;;;1.77;;
41456;SDS011;27197;51.752;5.220;2022-12-29T15:51:31;5.50;;;1.50;;
41456;SDS011;27197;51.752;5.220;2022-12-29T15:54:02;5.53;;;1.47;;
41456;SDS011;27197;51.752;5.220;2022-12-29T15:56:36;3.13;;;1.33;;
41456;SDS011;27197;51.752;5.220;2022-12-29T15:59:21;4.00;;;1.23;;
41456;SDS011;27197;51.752;5.220;2022-12-29T16:01:41;3.07;;;1.30;;
41456;SDS011;27197;51.752;5.220;2022-12-29T16:04:10;4.17;;;1.23;;
41456;SDS011;27197;51.752;5.220;2022-12-29T16:09:34;3.60;;;1.10;;
41456;SDS011;27197;51.752;5.220;2022-12-29T16:12:13;3.83;;;1.43;;
41456;SDS011;27197;51.752;5.220;2022-12-29T16:14:43;4.30;;;1.45;;
41456;SDS011;27197;51.752;5.220;2022-12-29T16:17:20;4.80;;;1.30;;
41456;SDS011;27197;51.752;5.220;2022-12-29T16:19:53;2.90;;;0.97;;
41456;SDS011;27197;51.752;5.220;2022-12-29T16:25:01;5.25;;;1.00;;
41456;SDS011;27197;51.752;5.220;2022-12-29T16:27:34;4.57;;;1.20;;
41456;SDS011;27197;51.752;5.220;2022-12-29T16:30:06;3.37;;;1.33;;
41456;SDS011;27197;51.752;5.220;2022-12-29T16:32:44;5.87;;;1.63;;
41456;SDS011;27197;51.752;5.220;2022-12-29T16:35:12;5.47;;;1.40;;
41456;SDS011;27197;51.752;5.220;2022-12-29T16:37:43;5.43;;;1.23;;
41456;SDS011;27197;51.752;5.220;2022-12-29T16:42:58;3.37;;;1.20;;
41456;SDS011;27197;51.752;5.220;2022-12-29T16:48:18;3.73;;;1.50;;
41456;SDS011;27197;51.752;5.220;2022-12-29T16:50:50;8.23;;;1.40;;
41456;SDS011;27197;51.752;5.220;2022-12-29T16:53:34;5.10;;;1.40;;
41456;SDS011;27197;51.752;5.220;2022-12-29T16:56:13;4.47;;;1.40;;
41456;SDS011;27197;51.752;5.220;2022-12-29T16:58:38;6.30;;;1.30;;
41456;SDS011;27197;51.752;5.220;2022-12-29T17:03:40;4.55;;;1.17;;
41456;SDS011;27197;51.752;5.220;2022-12-29T17:06:18;3.67;;;1.57;;
41456;SDS011;27197;51.752;5.220;2022-12-29T17:08:51;6.10;;;1.70;;
41456;SDS011;27197;51.752;5.220;2022-12-29T17:16:55;6.23;;;1.70;;
41456;SDS011;27197;51.752;5.220;2022-12-29T17:19:36;5.50;;;1.40;;
41456;SDS011;27197;51.752;5.220;2022-12-29T17:22:12;3.70;;;1.20;;
41456;SDS011;27197;51.752;5.220;2022-12-29T17:24:39;5.87;;;1.43;;
41456;SDS011;27197;51.752;5.220;2022-12-29T17:27:18;4.70;;;1.53;;
41456;SDS011;27197;51.752;5.220;2022-12-29T17:29:42;6.23;;;1.47;;
41456;SDS011;27197;51.752;5.220;2022-12-29T17:32:14;3.42;;;1.40;;
41456;SDS011;27197;51.752;5.220;2022-12-29T17:34:43;4.53;;;1.43;;
41456;SDS011;27197;51.752;5.220;2022-12-29T17:37:55;5.83;;;1.87;;
41456;SDS011;27197;51.752;5.220;2022-12-29T17:39:44;5.87;;;1.70;;